Time;durP1;ratioP1;P1;durP2;ratioP2;P2;SDS_P1;SDS_P2;PMS_P1;PMS_P2;Temp;Humidity;BMP_temperature;BMP_pressure;BME280_temperature;BME280_humidity;BME280_pressure;Samples;Min_cycle;Max_cycle;Signal;HPM_P1;HPM_P2
2021/03/08 00:02:06;;;;;;;21.30;12.80;;;;;;;-2.57;79.62;99471.84;4970133;28;20278;-94
2021/03/08 00:04:54;;;;;;;17.33;13.17;;;;;;;-2.62;79.52;99459.16;4999680;28;20231;-92
2021/03/08 00:07:45;;;;;;;18.60;12.33;;;;;;;-2.56;79.62;99463.00;4986287;28;20315;-94
2021/03/08 00:10:36;;;;;;;17.03;12.20;;;;;;;-2.65;79.69;99448.94;4983746;28;20239;-95
2021/03/08 00:13:17;;;;;;;13.97;11.20;;;;;;;-2.48;79.49;99471.84;4984777;28;20238;-92
2021/03/08 00:16:08;;;;;;;16.10;12.00;;;;;;;-2.52;79.92;99459.16;4985609;28;20234;-94
2021/03/08 00:19:00;;;;;;;17.03;12.10;;;;;;;-2.54;79.86;99464.53;5000303;28;20227;-90
2021/03/08 00:21:50;;;;;;;14.80;11.30;;;;;;;-2.49;79.97;99475.44;4968747;28;20242;-93
2021/03/08 00:24:39;;;;;;;15.97;11.67;;;;;;;-2.58;79.80;99459.72;5000522;28;20220;-94
2021/03/08 00:27:23;;;;;;;15.63;11.90;;;;;;;-2.45;80.31;99491.72;5000336;28;20230;-94
2021/03/08 00:30:10;;;;;;;16.90;12.07;;;;;;;-2.52;80.38;99473.06;5000353;28;20222;-94
2021/03/08 00:33:00;;;;;;;17.13;11.57;;;;;;;-2.55;80.80;99460.25;4999978;28;20227;-93
2021/03/08 00:35:53;;;;;;;14.47;10.87;;;;;;;-2.54;80.39;99467.16;4995220;28;20234;-94
2021/03/08 00:38:53;;;;;;;15.93;11.67;;;;;;;-2.50;80.58;99467.69;4977163;28;20223;-94
2021/03/08 00:41:39;;;;;;;15.73;11.63;;;;;;;-2.67;80.54;99451.72;4998616;28;20326;-92
2021/03/08 00:44:20;;;;;;;15.17;11.10;;;;;;;-2.67;80.64;99448.25;4981513;28;20243;-94
2021/03/08 00:47:08;;;;;;;18.37;11.93;;;;;;;-2.53;80.73;99473.22;4984628;28;20593;-91
2021/03/08 00:50:05;;;;;;;14.77;11.13;;;;;;;-2.61;81.11;99457.38;4984894;28;20649;-96
2021/03/08 00:52:56;;;;;;;14.63;10.90;;;;;;;-2.54;80.80;99463.69;4968228;28;20531;-93
2021/03/08 00:55:51;;;;;;;13.93;10.37;;;;;;;-2.59;80.88;99451.00;4982727;28;20223;-94
2021/03/08 00:58:37;;;;;;;21.53;16.00;;;;;;;-2.79;81.31;99415.28;4974469;28;20227;-94
2021/03/08 01:01:24;;;;;;;20.80;13.20;;;;;;;-2.53;80.76;99441.75;4999633;28;20223;-90
2021/03/08 01:04:20;;;;;;;17.10;11.77;;;;;;;-2.66;80.24;99418.44;4981656;28;20576;-93
2021/03/08 01:07:16;;;;;;;15.07;10.70;;;;;;;-2.47;80.52;99435.94;4997192;28;20298;-86
2021/03/08 01:10:14;;;;;;;15.27;11.33;;;;;;;-2.41;80.31;99443.22;4981310;28;20258;-94
2021/03/08 01:13:02;;;;;;;14.50;10.77;;;;;;;-2.32;79.94;99437.97;4979532;28;20231;-91
2021/03/08 01:15:57;;;;;;;15.80;11.03;;;;;;;-2.28;80.17;99449.81;4974742;28;20660;-96
2021/03/08 01:18:52;;;;;;;16.33;11.57;;;;;;;-2.47;80.66;99415.75;4979733;28;20234;-95
2021/03/08 01:21:45;;;;;;;15.37;11.43;;;;;;;-2.40;81.54;99431.78;4989689;28;20234;-91
2021/03/08 01:24:33;;;;;;;15.80;11.80;;;;;;;-2.45;81.56;99410.38;4983716;28;20234;-92
2021/03/08 01:27:27;;;;;;;17.23;11.70;;;;;;;-2.46;81.43;99414.81;4984528;28;20342;-92
2021/03/08 01:30:24;;;;;;;16.63;12.03;;;;;;;-2.43;81.10;99426.81;4998582;28;20230;-94
2021/03/08 01:33:22;;;;;;;16.27;11.83;;;;;;;-2.47;81.19;99421.00;4979500;28;20236;-92
2021/03/08 01:36:14;;;;;;;16.67;12.00;;;;;;;-2.38;81.38;99422.78;4978279;28;20224;-93
2021/03/08 01:39:12;;;;;;;17.13;11.67;;;;;;;-2.35;81.00;99416.44;4965535;28;20216;-95
2021/03/08 01:42:07;;;;;;;15.93;12.10;;;;;;;-2.37;81.88;99400.00;4989122;28;20634;-94
2021/03/08 01:45:00;;;;;;;15.30;11.33;;;;;;;-2.24;82.00;99419.69;4950975;28;20224;-86
2021/03/08 01:47:56;;;;;;;14.20;11.93;;;;;;;-2.40;81.85;99403.75;4978512;28;20232;-95
2021/03/08 01:50:50;;;;;;;16.77;12.07;;;;;;;-2.31;82.40;99415.19;4978713;28;20306;-92
2021/03/08 01:53:39;;;;;;;15.90;11.43;;;;;;;-2.33;81.72;99417.09;4959742;29;20299;-95
2021/03/08 01:56:33;;;;;;;14.67;11.63;;;;;;;-2.50;81.97;99389.81;4959993;28;21633;-94
2021/03/08 01:59:26;;;;;;;16.53;11.57;;;;;;;-2.41;82.48;99425.69;4945284;29;20675;-91
2021/03/08 02:02:19;;;;;;;15.80;11.37;;;;;;;-2.60;82.03;99393.44;4938252;28;20694;-94
2021/03/08 02:05:14;;;;;;;15.37;11.60;;;;;;;-2.57;82.52;99403.66;4965032;28;20232;-91
2021/03/08 02:08:06;;;;;;;16.40;11.03;;;;;;;-2.53;82.71;99398.00;4964641;28;20343;-92
2021/03/08 02:10:55;;;;;;;16.03;11.40;;;;;;;-2.35;82.06;99412.03;4978740;28;20231;-95
2021/03/08 02:14:11;;;;;;;13.83;11.27;;;;;;;-2.17;82.08;99422.59;4978750;28;20236;-95
2021/03/08 02:17:09;;;;;;;16.43;10.77;;;;;;;-2.19;81.91;99405.34;4964321;28;20216;-93
2021/03/08 02:20:18;;;;;;;15.13;11.57;;;;;;;-2.07;82.45;99420.75;4947693;28;20231;-94
2021/03/08 02:23:29;;;;;;;15.07;11.83;;;;;;;-2.02;82.34;99426.41;4950816;28;20537;-91
2021/03/08 02:26:40;;;;;;;16.33;12.10;;;;;;;-2.14;82.74;99397.84;4964211;28;20230;-93
2021/03/08 02:29:47;;;;;;;14.47;11.00;;;;;;;-1.97;82.61;99425.97;4945049;29;20228;-95
2021/03/08 02:32:42;;;;;;;16.77;12.67;;;;;;;-1.95;82.67;99427.47;4966085;28;20639;-94
2021/03/08 02:35:35;;;;;;;17.67;12.67;;;;;;;-2.00;82.67;99405.22;4946959;28;20232;-94
2021/03/08 02:38:33;;;;;;;16.17;11.97;;;;;;;-2.17;83.39;99403.38;4962575;28;20719;-95
2021/03/08 02:41:37;;;;;;;14.90;12.00;;;;;;;-2.11;84.24;99414.16;4964098;28;20232;-95
2021/03/08 02:44:34;;;;;;;15.70;12.37;;;;;;;-2.23;83.90;99412.66;4971656;28;20656;-94
2021/03/08 02:47:33;;;;;;;17.20;12.07;;;;;;;-2.32;84.22;99400.41;4981615;28;20211;-91
2021/03/08 02:50:28;;;;;;;14.83;12.03;;;;;;;-2.47;83.92;99386.91;4968072;28;20254;-95
2021/03/08 02:53:32;;;;;;;17.23;12.30;;;;;;;-2.40;84.26;99395.03;4980212;28;20227;-91
2021/03/08 02:56:33;;;;;;;16.03;12.10;;;;;;;-2.49;84.72;99406.41;4996196;28;20239;-95
2021/03/08 02:59:34;;;;;;;14.93;11.70;;;;;;;-2.67;84.59;99395.81;4972389;28;20223;-86
2021/03/08 03:02:23;;;;;;;15.17;11.57;;;;;;;-2.88;84.16;99375.00;4986011;28;20227;-96
2021/03/08 03:05:25;;;;;;;19.63;12.23;;;;;;;-2.77;84.64;99402.88;4974446;28;20231;-94
2021/03/08 03:08:15;;;;;;;17.27;11.97;;;;;;;-2.73;84.62;99415.56;4987058;28;20219;-95
2021/03/08 03:11:11;;;;;;;15.10;11.23;;;;;;;-2.90;84.39;99407.59;4987515;28;20527;-94
2021/03/08 03:14:02;;;;;;;15.30;11.67;;;;;;;-3.00;84.73;99410.22;4969557;28;20313;-92
2021/03/08 03:16:57;;;;;;;16.53;11.80;;;;;;;-2.80;85.16;99439.88;5001627;28;20227;-92
2021/03/08 03:19:57;;;;;;;15.50;11.33;;;;;;;-2.77;84.80;99452.69;4970423;28;20293;-88
2021/03/08 03:22:54;;;;;;;17.03;12.37;;;;;;;-2.78;84.94;99440.53;4987826;28;20356;-90
2021/03/08 03:25:40;;;;;;;17.67;11.63;;;;;;;-2.75;84.26;99432.38;4985757;28;20270;-94
2021/03/08 03:28:21;;;;;;;16.60;11.20;;;;;;;-2.67;84.70;99435.16;5000214;28;20233;-88
2021/03/08 03:31:11;;;;;;;14.37;11.03;;;;;;;-2.50;84.04;99449.31;4985431;28;20227;-89
2021/03/08 03:34:00;;;;;;;14.93;11.13;;;;;;;-2.60;83.44;99404.75;5000030;28;20227;-93
2021/03/08 03:36:49;;;;;;;13.43;10.00;;;;;;;-2.13;81.51;99436.25;5000626;28;20227;-96
2021/03/08 03:39:44;;;;;;;14.70;10.13;;;;;;;-1.83;79.98;99470.13;4957699;28;20247;-93
2021/03/08 03:42:34;;;;;;;13.60;9.67;;;;;;;-1.88;79.17;99444.31;4979002;28;20224;-91
2021/03/08 03:45:22;;;;;;;13.50;9.13;;;;;;;-1.86;78.45;99420.50;4966705;28;20532;-96
2021/03/08 03:48:18;;;;;;;10.47;8.57;;;;;;;-1.29;76.40;99450.88;4983851;28;20628;-95
2021/03/08 03:51:06;;;;;;;10.87;8.20;;;;;;;-1.14;75.99;99454.66;4972282;28;20537;-89
2021/03/08 03:53:53;;;;;;;11.00;7.77;;;;;;;-1.12;75.24;99447.44;5000460;28;20227;-91
2021/03/08 03:57:03;;;;;;;11.50;8.10;;;;;;;-0.92;75.90;99479.69;4985410;28;20231;-95
2021/03/08 04:00:01;;;;;;;10.33;7.73;;;;;;;-0.85;75.04;99454.44;4985340;28;20232;-91
2021/03/08 04:03:01;;;;;;;12.23;8.10;;;;;;;-0.62;73.95;99460.06;4984906;28;20705;-91
2021/03/08 04:05:53;;;;;;;11.13;7.57;;;;;;;-0.89;74.87;99453.88;4983227;28;20258;-85
2021/03/08 04:08:52;;;;;;;9.57;7.63;;;;;;;-0.73;74.59;99482.16;4991848;28;20314;-93
2021/03/08 04:11:47;;;;;;;10.30;7.57;;;;;;;-0.89;75.15;99487.28;5001978;28;20227;-90
2021/03/08 04:14:43;;;;;;;13.57;8.20;;;;;;;-0.85;74.93;99486.00;5012022;28;20215;-93
2021/03/08 04:17:28;;;;;;;10.70;8.27;;;;;;;-0.73;73.67;99474.25;5000027;28;20227;-90
2021/03/08 04:20:24;;;;;;;11.63;8.53;;;;;;;-0.41;72.70;99493.91;4984446;28;20230;-91
2021/03/08 04:23:17;;;;;;;11.47;9.03;;;;;;;-0.27;72.28;99494.19;4984598;28;20223;-93
2021/03/08 04:26:05;;;;;;;14.30;9.67;;;;;;;-0.13;71.18;99495.44;4984258;28;20242;-95
2021/03/08 04:28:57;;;;;;;12.27;9.47;;;;;;;-0.22;71.12;99481.41;4971263;28;20643;-94
2021/03/08 04:31:43;;;;;;;14.93;10.80;;;;;;;-0.08;70.89;99501.06;4977442;28;20231;-94
2021/03/08 04:34:36;;;;;;;14.03;9.97;;;;;;;-0.20;70.99;99500.50;4957993;28;20227;-91
2021/03/08 04:37:23;;;;;;;15.93;10.90;;;;;;;-0.21;71.10;99514.66;4978933;28;20231;-92
2021/03/08 04:40:29;;;;;;;14.23;10.33;;;;;;;-0.21;71.41;99513.81;4985836;28;20223;-89
2021/03/08 04:43:27;;;;;;;15.83;10.87;;;;;;;-0.36;71.18;99484.59;4998436;28;20315;-93
2021/03/08 04:46:08;;;;;;;14.03;10.83;;;;;;;-0.34;71.45;99493.16;4997937;28;20233;-92
2021/03/08 04:49:00;;;;;;;13.93;10.67;;;;;;;-0.40;71.51;99492.94;4952948;28;20250;-90
2021/03/08 04:51:45;;;;;;;15.40;10.93;;;;;;;-0.27;71.62;99517.06;4981523;28;20231;-94
2021/03/08 04:54:28;;;;;;;17.07;11.30;;;;;;;-0.32;70.99;99514.06;4983916;28;20286;-92
2021/03/08 04:57:26;;;;;;;16.47;11.53;;;;;;;-0.28;71.16;99534.66;4983776;28;20223;-92
2021/03/08 05:00:18;;;;;;;15.23;11.87;;;;;;;-0.55;71.06;99492.66;4971108;28;20725;-89
2021/03/08 05:03:09;;;;;;;18.53;12.63;;;;;;;-0.49;71.30;99519.22;4983111;28;20235;-89
2021/03/08 05:06:00;;;;;;;16.57;11.73;;;;;;;-0.46;71.17;99537.31;4968071;28;20234;-89
2021/03/08 05:08:51;;;;;;;18.73;12.20;;;;;;;-0.61;71.25;99524.88;4983333;28;20227;-94
2021/03/08 05:11:44;;;;;;;17.33;12.67;;;;;;;-0.59;71.51;99539.50;4975836;28;20278;-92
2021/03/08 05:14:37;;;;;;;20.73;11.80;;;;;;;-0.68;70.98;99519.38;4997658;28;20232;-86
2021/03/08 05:17:32;;;;;;;16.43;11.70;;;;;;;-0.60;71.58;99534.38;4997939;28;20329;-95
2021/03/08 05:20:27;;;;;;;16.83;10.77;;;;;;;-0.57;71.05;99532.31;4968615;28;20218;-93
2021/03/08 05:23:12;;;;;;;17.33;11.07;;;;;;;-0.79;71.59;99509.06;4968513;28;20223;-89
2021/03/08 05:26:08;;;;;;;14.47;10.93;;;;;;;-0.80;71.54;99520.59;4998081;28;20646;-95
2021/03/08 05:28:59;;;;;;;14.37;11.03;;;;;;;-0.74;70.82;99524.38;4982738;28;20224;-92
2021/03/08 05:31:50;;;;;;;15.13;10.43;;;;;;;-0.66;71.07;99538.47;4990662;28;20234;-95
2021/03/08 05:34:34;;;;;;;14.00;9.87;;;;;;;-0.74;71.16;99550.69;4984711;28;20227;-92
2021/03/08 05:37:31;;;;;;;14.10;9.43;;;;;;;-0.85;71.43;99543.03;4990218;28;20274;-91
2021/03/08 05:40:22;;;;;;;16.03;10.60;;;;;;;-0.82;70.96;99540.09;4992025;28;20294;-80
2021/03/08 05:43:23;;;;;;;14.33;9.90;;;;;;;-0.82;71.09;99540.09;4999219;28;20651;-93
2021/03/08 05:46:41;;;;;;;14.93;10.40;;;;;;;-0.76;71.30;99552.66;4997375;28;20235;-82
2021/03/08 05:50:04;;;;;;;14.03;10.13;;;;;;;-0.69;71.11;99558.97;4993591;28;20247;-82
2021/03/08 05:53:22;;;;;;;12.97;9.63;;;;;;;-0.64;71.21;99570.72;5013160;28;20276;-81
2021/03/08 05:56:19;;;;;;;13.67;10.60;;;;;;;-0.59;70.87;99570.25;4985864;28;20226;-83
2021/03/08 05:59:28;;;;;;;14.87;10.03;;;;;;;-0.49;70.77;99571.00;5015765;28;20630;-81
2021/03/08 06:02:32;;;;;;;14.13;10.90;;;;;;;-0.44;70.80;99579.28;5002656;28;20203;-80
2021/03/08 06:06:06;;;;;;;14.37;10.23;;;;;;;-0.35;70.06;99581.03;5023059;23;20191;31
2021/03/08 06:09:31;;;;;;;14.57;10.40;;;;;;;-0.29;69.50;99575.16;4929405;29;20223;-80
2021/03/08 06:12:51;;;;;;;14.07;10.60;;;;;;;0.02;68.66;99601.06;4917451;29;20231;-80
2021/03/08 06:16:17;;;;;;;14.20;10.57;;;;;;;-0.09;68.43;99565.25;4956863;23;20211;-80
2021/03/08 06:20:18;;;;;;;13.63;10.40;;;;;;;0.37;67.66;99599.16;5108144;23;20238;-79
2021/03/08 06:23:44;;;;;;;14.50;10.77;;;;;;;0.55;66.12;99599.13;4985749;28;20202;-79
2021/03/08 06:27:11;;;;;;;13.17;10.30;;;;;;;0.70;65.95;99607.28;5150066;23;20656;-80
2021/03/08 06:30:53;;;;;;;14.60;11.10;;;;;;;0.87;65.13;99607.19;5051047;28;20214;-80
2021/03/08 06:34:45;;;;;;;15.20;10.40;;;;;;;0.95;64.56;99614.31;5032268;28;20297;-81
2021/03/08 06:38:41;;;;;;;14.37;10.27;;;;;;;0.78;64.46;99579.13;5055988;23;20233;-80
2021/03/08 06:42:14;;;;;;;13.47;9.77;;;;;;;0.92;64.08;99595.34;5048334;28;20245;-81
2021/03/08 06:45:44;;;;;;;14.17;10.63;;;;;;;0.98;63.60;99613.97;5060282;23;20226;-82
2021/03/08 06:49:50;;;;;;;12.20;9.73;;;;;;;0.88;64.71;99595.66;5079014;23;20238;-80
2021/03/08 06:54:35;;;;;;;17.03;10.90;;;;;;;1.07;64.62;99630.69;5051756;23;20531;-80
2021/03/08 06:59:20;;;;;;;13.97;9.97;;;;;;;1.21;64.38;99627.44;5109329;23;20215;-78
2021/03/08 07:03:16;;;;;;;13.87;10.70;;;;;;;1.38;64.28;99633.59;4996815;28;20199;-80
2021/03/08 07:07:07;;;;;;;12.13;9.20;;;;;;;1.51;63.29;99632.16;5098096;23;20228;-80
2021/03/08 07:10:44;;;;;;;14.10;9.67;;;;;;;1.61;63.14;99640.75;4982992;28;20217;-81
2021/03/08 07:14:33;;;;;;;11.07;8.80;;;;;;;1.74;62.56;99648.19;4956642;28;20742;-80
2021/03/08 07:23:17;;;;;;;9.50;7.77;;;;;;;1.96;61.60;99641.47;5081222;23;20274;-79
2021/03/08 07:27:13;;;;;;;10.40;8.17;;;;;;;2.15;60.81;99641.13;5078894;23;20266;-80
2021/03/08 07:31:29;;;;;;;11.80;7.87;;;;;;;2.27;59.97;99623.94;5024249;23;20214;-80
2021/03/08 07:39:16;;;;;;;9.57;7.13;;;;;;;2.68;59.29;99635.28;4916213;29;20214;-80
2021/03/08 07:46:51;;;;;;;10.23;7.70;;;;;;;2.81;58.48;99651.44;5091497;23;20250;-80
2021/03/08 07:50:33;;;;;;;12.47;7.53;;;;;;;2.85;57.82;99652.75;4984037;28;20212;-80
2021/03/08 07:54:08;;;;;;;11.63;7.70;;;;;;;3.03;57.70;99652.56;5001937;23;20231;-80
2021/03/08 07:58:21;;;;;;;10.53;7.60;;;;;;;3.01;58.00;99647.44;5130634;23;20247;-80
2021/03/08 08:06:21;;;;;;;8.57;6.63;;;;;;;3.08;56.90;99658.97;4997265;23;20234;-80
2021/03/08 08:10:00;;;;;;;11.43;6.93;;;;;;;3.17;57.19;99648.38;5023912;23;20239;-80
2021/03/08 08:21:12;;;;;;;7.27;6.10;;;;;;;3.54;55.88;99644.06;4951879;29;20208;-80
2021/03/08 08:27:46;;;;;;;8.70;5.80;;;;;;;3.89;55.29;99644.50;4994665;23;20214;-79
2021/03/08 08:31:25;;;;;;;7.63;5.30;;;;;;;3.83;55.02;99624.81;5069006;23;20222;-80
2021/03/08 08:35:11;;;;;;;6.80;5.20;;;;;;;4.08;54.28;99656.44;5307145;23;20226;-80
2021/03/08 08:39:25;;;;;;;10.13;5.97;;;;;;;4.19;54.51;99656.03;4996594;23;20214;-80
2021/03/08 08:42:55;;;;;;;9.10;5.33;;;;;;;4.30;54.30;99653.78;5033701;23;20223;-77
2021/03/08 08:47:07;;;;;;;8.03;5.37;;;;;;;4.43;54.05;99659.28;4949904;23;20210;-79
2021/03/08 08:50:45;;;;;;;6.90;5.43;;;;;;;4.42;52.87;99659.50;5041022;23;20318;-80
2021/03/08 08:58:38;;;;;;;8.60;6.20;;;;;;;4.35;53.22;99672.63;5007535;23;20299;-80
2021/03/08 09:02:01;;;;;;;8.03;6.10;;;;;;;4.22;52.62;99619.38;5023203;23;20276;-79
2021/03/08 09:05:20;;;;;;;9.40;6.73;;;;;;;4.42;51.97;99657.66;5055917;23;20233;-80
2021/03/08 09:09:00;;;;;;;8.27;6.70;;;;;;;4.59;52.35;99653.03;5128040;23;20229;-82
2021/03/08 09:13:07;;;;;;;7.70;6.47;;;;;;;4.65;51.25;99654.97;5019571;23;20237;-79
2021/03/08 09:16:54;;;;;;;8.33;6.80;;;;;;;4.97;50.22;99650.31;5073686;23;20237;-81
2021/03/08 09:20:24;;;;;;;8.50;6.67;;;;;;;5.06;50.25;99638.59;5041907;23;20237;-79
2021/03/08 09:23:31;;;;;;;8.90;6.80;;;;;;;5.04;49.71;99632.66;5028374;23;20222;-79
2021/03/08 09:30:59;;;;;;;8.97;7.23;;;;;;;5.63;49.18;99657.28;4963205;28;20228;-79
2021/03/08 09:34:37;;;;;;;8.27;7.40;;;;;;;5.63;48.50;99654.63;5005362;23;20252;-79
2021/03/08 09:38:55;;;;;;;8.60;7.70;;;;;;;5.90;48.19;99663.75;5021699;28;20226;-80
2021/03/08 09:43:13;;;;;;;8.13;7.17;;;;;;;6.10;46.83;99636.34;5027772;23;20222;-79
2021/03/08 11:26:58;;;;;;;10.70;6.43;;;;;;;6.65;46.31;99677.34;5822070;23;20236;-85
2021/03/08 12:31:35;;;;;;;5.10;4.00;;;;;;;8.17;43.55;99637.00;4949387;23;21386;-80
2021/03/08 12:35:01;;;;;;;4.60;3.57;;;;;;;7.67;43.09;99609.00;4958020;29;20173;-80
2021/03/08 12:38:55;;;;;;;5.10;4.30;;;;;;;8.43;40.62;99622.88;4961003;29;20225;-79
2021/03/08 12:46:25;;;;;;;4.87;3.70;;;;;;;8.34;40.89;99624.94;4895529;29;20237;-79
2021/03/08 12:49:55;;;;;;;4.23;3.83;;;;;;;8.87;39.97;99608.84;4892944;29;20239;-79
2021/03/08 12:53:29;;;;;;;4.40;3.70;;;;;;;9.18;38.70;99616.19;4903995;29;20308;-79
2021/03/08 12:57:13;;;;;;;4.40;4.00;;;;;;;9.15;40.04;99617.41;4911346;24;20230;-79
2021/03/08 13:01:03;;;;;;;4.50;3.80;;;;;;;9.52;39.29;99621.16;4826347;29;20218;-78
2021/03/08 13:05:12;;;;;;;5.53;3.30;;;;;;;8.47;41.67;99583.25;4821262;24;20194;-78
2021/03/08 13:13:42;;;;;;;7.53;4.93;;;;;;;7.14;48.28;99607.19;4894742;29;20262;-80
2021/03/08 13:18:16;;;;;;;6.23;5.17;;;;;;;7.27;47.50;99608.06;4967306;23;20288;-79
2021/03/08 13:22:15;;;;;;;5.73;4.70;;;;;;;7.34;48.08;99610.72;4883160;29;20227;-80
2021/03/08 13:26:02;;;;;;;6.17;4.70;;;;;;;7.36;47.34;99582.06;4935704;23;20229;-80
2021/03/08 13:35:30;;;;;;;5.00;3.97;;;;;;;7.48;46.59;99607.09;4937387;29;20427;-79
2021/03/08 13:47:58;;;;;;;6.43;4.53;;;;;;;8.40;44.83;99585.91;4844997;29;20289;-78
2021/03/08 13:52:20;;;;;;;5.77;4.37;;;;;;;8.65;44.35;99612.78;4917116;23;20233;-79
2021/03/08 13:56:00;;;;;;;4.57;4.17;;;;;;;8.17;46.49;99612.16;5014415;23;20467;-79
2021/03/08 13:59:53;;;;;;;6.00;5.30;;;;;;;7.68;45.80;99588.50;4957391;23;20251;-80
2021/03/08 14:03:54;;;;;;;6.10;4.83;;;;;;;7.56;47.03;99612.25;4889369;29;20277;-80
2021/03/08 14:08:06;;;;;;;7.27;5.97;;;;;;;6.99;49.24;99589.50;5047203;23;20262;-79
2021/03/08 14:12:19;;;;;;;9.70;6.57;;;;;;;6.89;51.70;99614.81;4929145;29;20206;-79
2021/03/08 14:16:28;;;;;;;8.00;6.90;;;;;;;6.34;52.01;99595.22;4925617;23;20257;-81
2021/03/08 14:20:22;;;;;;;8.40;7.07;;;;;;;6.79;51.16;99612.50;5051823;23;22626;-79
2021/03/08 14:24:41;;;;;;;8.90;6.70;;;;;;;6.21;51.70;99611.06;4985368;23;21018;-79
2021/03/08 14:29:07;;;;;;;10.13;6.63;;;;;;;6.47;52.87;99611.28;4928796;23;20230;-79
2021/03/08 14:40:54;;;;;;;7.80;6.33;;;;;;;6.62;50.06;99609.31;4953175;23;20318;-79
2021/03/08 14:45:07;;;;;;;8.40;5.63;;;;;;;6.41;51.37;99619.19;4941435;23;20264;-79
2021/03/08 14:49:35;;;;;;;10.33;6.60;;;;;;;6.32;52.59;99604.38;4916126;23;20228;-79
2021/03/08 14:53:54;;;;;;;8.93;6.90;;;;;;;6.16;52.88;99622.25;4935984;23;20230;-79
2021/03/08 14:57:49;;;;;;;9.97;7.37;;;;;;;6.41;52.97;99621.88;4891074;23;20320;-81
2021/03/08 15:01:39;;;;;;;16.20;8.13;;;;;;;6.63;51.17;99628.78;4931485;24;20229;-79
2021/03/08 15:09:42;;;;;;;10.40;7.40;;;;;;;6.35;52.50;99642.06;4971649;23;20229;-79
2021/03/08 15:25:52;;;;;;;12.43;8.97;;;;;;;6.12;52.04;99636.13;4952148;23;22857;-79
2021/03/08 15:30:00;;;;;;;14.27;9.23;;;;;;;6.06;51.97;99643.06;4989551;23;20252;-79
2021/03/08 15:37:43;;;;;;;10.70;7.50;;;;;;;5.78;51.62;99650.91;4971347;23;20220;-80
2021/03/08 15:41:22;;;;;;;9.80;7.37;;;;;;;5.54;52.15;99637.16;4945562;23;20233;-79
2021/03/08 15:49:12;;;;;;;10.97;9.63;;;;;;;5.40;53.65;99669.88;4939865;29;20253;-80
2021/03/08 15:53:08;;;;;;;11.93;9.17;;;;;;;5.21;53.67;99634.09;4989156;23;20211;-80
2021/03/08 16:02:01;;;;;;;12.50;9.87;;;;;;;4.68;55.41;99621.91;4964499;23;20257;-80
2021/03/08 16:10:31;;;;;;;13.40;10.53;;;;;;;4.73;57.42;99668.16;5019963;23;20293;-80
2021/03/08 16:14:47;;;;;;;13.10;11.00;;;;;;;4.55;57.61;99677.44;4923056;29;20244;-80
2021/03/08 16:18:41;;;;;;;15.13;11.73;;;;;;;4.38;58.30;99674.94;4968789;23;20252;-79
2021/03/08 16:22:25;;;;;;;14.30;11.60;;;;;;;4.27;59.44;99677.19;4949323;23;20257;-79
2021/03/08 16:26:18;;;;;;;14.07;11.53;;;;;;;4.14;60.26;99677.78;4943605;23;20252;-79
2021/03/08 16:30:11;;;;;;;17.10;12.23;;;;;;;4.10;60.71;99676.50;4940635;23;20240;-79
2021/03/08 16:33:57;;;;;;;18.67;13.83;;;;;;;4.03;60.58;99688.78;4929859;29;20230;-80
2021/03/08 16:42:32;;;;;;;15.83;12.40;;;;;;;3.82;60.46;99688.59;5043109;23;20256;-78
2021/03/08 16:46:29;;;;;;;16.73;13.13;;;;;;;3.70;61.52;99703.25;4966598;23;20252;-79
2021/03/08 16:50:25;;;;;;;13.97;11.47;;;;;;;3.65;60.86;99714.34;4960332;29;20229;-79
2021/03/08 17:01:07;;;;;;;18.73;12.03;;;;;;;3.47;62.98;99714.59;4951051;23;20237;-80
2021/03/08 17:04:45;;;;;;;24.67;16.00;;;;;;;3.41;63.54;99723.22;5056530;23;20213;-80
2021/03/08 17:12:46;;;;;;;23.83;11.70;;;;;;;3.41;60.91;99719.75;4966065;23;20244;-79
2021/03/08 17:32:44;;;;;;;13.03;8.80;;;;;;;3.37;59.14;99772.25;4961870;23;20264;-78
2021/03/08 17:35:45;;;;;;;11.77;8.73;;;;;;;3.34;58.09;99759.34;4956285;29;20238;-78
2021/03/08 17:38:55;;;;;;;11.27;8.67;;;;;;;3.36;58.39;99770.59;4958259;29;20197;-78
2021/03/08 17:43:00;;;;;;;11.60;8.60;;;;;;;3.33;57.99;99778.88;4938268;29;20260;-79
2021/03/08 17:49:31;;;;;;;12.20;8.70;;;;;;;3.34;57.31;99782.34;4952502;23;20289;-80
2021/03/08 17:57:06;;;;;;;10.00;8.13;;;;;;;3.37;57.41;99795.25;4965717;23;20276;-82
2021/03/08 18:00:58;;;;;;;9.47;7.97;;;;;;;3.29;57.95;99797.94;4930216;23;20251;-81
2021/03/08 18:08:18;;;;;;;11.50;8.57;;;;;;;3.21;58.30;99808.53;4976257;23;20241;-79
2021/03/08 18:12:13;;;;;;;11.97;9.03;;;;;;;3.18;57.97;99819.44;4944271;29;20289;-78
2021/03/08 18:15:16;;;;;;;13.87;9.20;;;;;;;3.14;58.58;99821.59;4956206;29;20641;-82
2021/03/08 18:18:04;;;;;;;12.80;9.30;;;;;;;3.05;58.27;99789.03;4932692;29;20294;-81
2021/03/08 18:20:45;;;;;;;12.03;9.87;;;;;;;3.24;58.67;99818.78;4940162;29;20217;-81
2021/03/08 18:23:37;;;;;;;13.23;10.27;;;;;;;3.22;58.71;99803.06;4939886;29;20294;-83
2021/03/08 18:26:23;;;;;;;13.27;9.90;;;;;;;3.12;58.92;99802.44;4945522;29;20665;-81
2021/03/08 18:29:02;;;;;;;13.20;10.30;;;;;;;3.24;58.79;99816.13;4951895;29;20230;-81
2021/03/08 18:31:35;;;;;;;14.37;11.00;;;;;;;3.03;59.63;99809.53;4938809;29;20244;-82
2021/03/08 18:34:39;;;;;;;14.43;10.33;;;;;;;3.19;59.51;99813.16;4910752;29;20229;-81
2021/03/08 18:37:19;;;;;;;16.00;10.03;;;;;;;3.26;59.70;99840.66;4957115;29;20281;-80
2021/03/08 18:40:19;;;;;;;14.47;10.53;;;;;;;3.08;59.81;99815.16;4925174;29;20503;-80
2021/03/08 18:43:13;;;;;;;13.07;9.83;;;;;;;3.16;57.19;99816.16;4941980;29;20309;-80
2021/03/08 18:46:05;;;;;;;12.07;9.30;;;;;;;3.18;58.22;99832.69;4956702;29;20305;-80
2021/03/08 18:48:55;;;;;;;12.53;9.07;;;;;;;3.26;57.59;99844.13;4957352;29;20216;-81
2021/03/08 18:51:49;;;;;;;12.70;9.97;;;;;;;3.34;57.16;99846.75;4956533;29;20193;-83
2021/03/08 18:55:07;;;;;;;13.23;9.57;;;;;;;3.20;57.82;99847.44;4953686;29;20232;-81
2021/03/08 18:58:02;;;;;;;18.80;15.03;;;;;;;2.95;65.51;99861.66;4941352;29;20244;-78
2021/03/08 19:01:37;;;;;;;23.50;15.90;;;;;;;2.60;68.99;99873.38;4971225;23;20228;-79
2021/03/08 19:05:15;;;;;;;21.03;16.63;;;;;;;2.41;70.68;99873.66;4899191;29;20250;-80
2021/03/08 19:08:29;;;;;;;24.73;18.13;;;;;;;2.32;71.21;99871.97;4934751;29;20202;-79
2021/03/08 19:11:26;;;;;;;25.93;17.63;;;;;;;2.27;71.32;99866.34;4935720;29;20238;-79
2021/03/08 19:14:31;;;;;;;25.70;18.50;;;;;;;2.10;72.29;99865.47;5024585;23;20205;-78
2021/03/08 19:17:26;;;;;;;28.23;21.20;;;;;;;2.06;72.85;99872.88;4956638;29;20229;-85
2021/03/08 19:20:34;;;;;;;29.07;20.37;;;;;;;1.89;72.59;99857.13;4968956;23;20261;-79
2021/03/08 19:24:23;;;;;;;24.97;19.97;;;;;;;1.81;72.88;99849.16;4947606;23;20298;-79
2021/03/08 19:27:24;;;;;;;25.30;19.70;;;;;;;1.90;72.77;99870.19;5045250;23;20235;-81
2021/03/08 19:30:29;;;;;;;28.63;20.30;;;;;;;1.92;73.38;99881.41;4962686;23;20209;-79
2021/03/08 19:34:42;;;;;;;26.07;20.33;;;;;;;1.98;72.92;99895.81;4962866;23;20221;-79
2021/03/08 19:38:27;;;;;;;27.53;20.00;;;;;;;1.92;74.11;99891.13;4960912;23;20308;-80
2021/03/08 19:42:37;;;;;;;28.80;21.63;;;;;;;1.73;74.03;99895.66;4942440;23;20363;-79
2021/03/08 19:45:48;;;;;;;29.80;20.67;;;;;;;1.34;74.51;99839.00;4964881;23;20286;-79
2021/03/08 19:49:11;;;;;;;26.57;19.90;;;;;;;1.61;75.34;99904.03;4975114;23;20296;-79
2021/03/08 19:52:47;;;;;;;27.67;21.20;;;;;;;1.44;75.33;99881.13;4959244;29;20230;-79
2021/03/08 19:56:15;;;;;;;28.93;22.07;;;;;;;1.39;75.32;99875.50;4960237;29;20240;-79
2021/03/08 19:59:12;;;;;;;29.23;22.33;;;;;;;1.49;75.98;99905.28;4965984;23;20306;-79
2021/03/08 20:03:24;;;;;;;26.67;20.70;;;;;;;1.44;76.23;99902.25;4922028;23;20237;-80
2021/03/08 20:07:04;;;;;;;28.87;21.37;;;;;;;1.31;76.21;99890.28;4974284;23;20264;-79
2021/03/08 20:10:43;;;;;;;26.40;20.80;;;;;;;1.42;76.11;99907.69;4945727;23;20257;-79
2021/03/08 20:18:33;;;;;;;26.90;19.40;;;;;;;1.39;75.96;99921.22;4930102;23;20233;-79
2021/03/08 20:22:19;;;;;;;25.63;19.67;;;;;;;1.39;75.00;99920.38;4960549;23;21105;-79
2021/03/08 20:26:12;;;;;;;22.60;18.40;;;;;;;1.36;75.20;99920.66;4894583;29;20261;-80
2021/03/08 20:34:16;;;;;;;25.43;19.40;;;;;;;1.09;75.00;99879.38;4926583;23;20242;-79
2021/03/08 20:38:28;;;;;;;25.13;18.90;;;;;;;1.44;74.45;99924.22;4940188;29;20207;-79
2021/03/08 20:45:45;;;;;;;24.17;18.50;;;;;;;1.48;74.37;99925.56;5002617;23;20246;-79
2021/03/08 20:53:40;;;;;;;25.20;18.80;;;;;;;1.44;74.71;99929.50;4944089;23;20211;-78